createdAt,value
2023-02-02T00:00:57.800Z,99795.34
2023-02-02T00:03:27.933Z,99789.41
2023-02-02T00:05:58.053Z,99790.22
2023-02-02T00:08:28.315Z,99791.91
2023-02-02T00:10:58.595Z,99787.63
2023-02-02T00:13:28.848Z,99781.59
2023-02-02T00:15:59.036Z,99789.34
2023-02-02T00:18:29.151Z,99784.22
2023-02-02T00:20:59.241Z,99793.66
2023-02-02T00:23:29.773Z,99791.88
2023-02-02T00:25:59.967Z,99788.34
2023-02-02T00:28:30.068Z,99789.19
2023-02-02T00:31:00.204Z,99783.13
2023-02-02T00:33:30.307Z,99789.06
2023-02-02T00:36:00.400Z,99781.31
2023-02-02T00:38:31.711Z,99787.28
2023-02-02T00:41:01.913Z,99793.16
2023-02-02T00:43:31.963Z,99782.66
2023-02-02T00:46:02.466Z,99790.31
2023-02-02T00:48:32.715Z,99791.97
2023-02-02T00:51:02.867Z,99789.44
2023-02-02T00:53:32.981Z,99780.91
2023-02-02T00:56:03.342Z,99777.56
2023-02-02T00:58:33.431Z,99779.34
2023-02-02T01:01:03.987Z,99785.47
2023-02-02T01:03:34.052Z,99777.81
2023-02-02T01:06:04.449Z,99772.69
2023-02-02T01:08:34.552Z,99773.63
2023-02-02T01:11:04.949Z,99765.13
2023-02-02T01:13:35.516Z,99764.28
2023-02-02T01:16:06.249Z,99769.50
2023-02-02T01:18:36.538Z,99763.50
2023-02-02T01:21:09.315Z,99763.56
2023-02-02T01:23:40.734Z,99762.66
2023-02-02T01:26:13.071Z,99760.94
2023-02-02T01:28:43.925Z,99761.84
2023-02-02T01:31:19.685Z,99770.41
2023-02-02T01:33:50.796Z,99763.53
2023-02-02T01:36:22.708Z,99768.66
2023-02-02T01:38:52.887Z,99760.06
2023-02-02T01:41:25.755Z,99760.94
2023-02-02T01:44:06.931Z,99764.38
2023-02-02T01:46:37.522Z,99763.53
2023-02-02T01:49:27.758Z,99760.97
2023-02-02T01:52:01.141Z,99768.78
2023-02-02T01:54:36.170Z,99759.34
2023-02-02T01:57:16.943Z,99756.78
2023-02-02T01:59:48.172Z,99756.81
2023-02-02T02:02:18.756Z,99750.81
2023-02-02T02:04:50.618Z,99757.66
2023-02-02T02:07:21.204Z,99758.56
2023-02-02T02:09:51.357Z,99757.69
2023-02-02T02:12:21.629Z,99756.88
2023-02-02T02:15:10.497Z,99755.16
2023-02-02T02:18:08.178Z,99761.16
2023-02-02T02:21:05.954Z,99760.28
2023-02-02T02:24:22.102Z,99762.88
2023-02-02T02:27:19.566Z,99761.16
2023-02-02T02:29:55.331Z,99760.31
2023-02-02T02:32:35.950Z,99756.00
2023-02-02T02:35:27.382Z,99766.34
2023-02-02T02:38:26.857Z,99764.63
2023-02-02T02:41:27.630Z,99757.81
2023-02-02T02:44:06.956Z,99757.81
2023-02-02T02:46:38.154Z,99752.66
2023-02-02T02:49:11.067Z,99745.81
2023-02-02T02:51:55.341Z,99753.59
2023-02-02T02:54:35.798Z,99751.00
2023-02-02T02:57:49.508Z,99763.03
2023-02-02T03:01:12.710Z,99757.06
2023-02-02T03:04:12.782Z,99757.94
2023-02-02T03:06:51.455Z,99751.91
2023-02-02T03:09:30.128Z,99757.06
2023-02-02T03:12:00.931Z,99761.34
2023-02-02T03:14:36.009Z,99762.22
2023-02-02T03:17:06.158Z,99757.06
2023-02-02T03:19:36.283Z,99759.66
2023-02-02T03:22:06.414Z,99754.50
2023-02-02T03:24:36.609Z,99757.09
2023-02-02T03:27:08.916Z,99759.69
2023-02-02T03:29:39.926Z,99766.56
2023-02-02T03:32:10.298Z,99757.09
2023-02-02T03:34:45.909Z,99762.28
2023-02-02T03:37:16.098Z,99761.44
2023-02-02T03:39:46.257Z,99753.69
2023-02-02T03:42:16.526Z,99756.31
2023-02-02T03:44:46.571Z,99758.00
2023-02-02T03:47:16.789Z,99755.41
2023-02-02T03:49:47.026Z,99752.81
2023-02-02T03:52:17.183Z,99756.22
2023-02-02T03:54:47.271Z,99753.59
2023-02-02T03:57:17.688Z,99759.59
2023-02-02T03:59:47.832Z,99757.81
2023-02-02T04:02:17.979Z,99760.38
2023-02-02T04:04:48.052Z,99752.66
2023-02-02T04:07:18.253Z,99762.94
2023-02-02T04:09:48.323Z,99771.50
2023-02-02T04:12:18.519Z,99766.25
2023-02-02T04:14:48.579Z,99768.81
2023-02-02T04:17:18.704Z,99771.38
2023-02-02T04:19:48.818Z,99781.72
2023-02-02T04:22:18.933Z,99785.19
2023-02-02T04:24:49.104Z,99783.53
2023-02-02T04:27:19.396Z,99786.97
2023-02-02T04:29:49.552Z,99793.00
2023-02-02T04:32:19.748Z,99798.16
2023-02-02T04:34:49.909Z,99797.31
2023-02-02T04:37:20.079Z,99796.41
2023-02-02T04:39:50.910Z,99799.84
2023-02-02T04:42:21.309Z,99794.69
2023-02-02T04:44:51.476Z,99799.00
2023-02-02T04:47:21.735Z,99790.41
2023-02-02T04:49:51.856Z,99790.44
2023-02-02T04:52:22.013Z,99804.16
2023-02-02T04:54:52.115Z,99799.84
2023-02-02T04:57:22.258Z,99808.41
2023-02-02T05:00:08.302Z,99811.00
2023-02-02T05:02:41.390Z,99810.19
2023-02-02T05:05:24.224Z,99811.94
2023-02-02T05:07:54.772Z,99816.22
2023-02-02T05:10:24.975Z,99829.09
2023-02-02T05:12:56.088Z,99819.66
2023-02-02T05:15:26.636Z,99823.88
2023-02-02T05:18:02.404Z,99835.13
2023-02-02T05:20:32.627Z,99835.13
2023-02-02T05:23:02.830Z,99836.88
2023-02-02T05:25:33.072Z,99833.44
2023-02-02T05:28:03.248Z,99842.00
2023-02-02T05:30:33.712Z,99837.69
2023-02-02T05:33:03.972Z,99841.97
2023-02-02T05:35:34.073Z,99841.09
2023-02-02T05:38:04.568Z,99842.78
2023-02-02T05:40:34.740Z,99845.38
2023-02-02T05:43:04.998Z,99843.63
2023-02-02T05:45:38.370Z,99846.16
2023-02-02T05:48:14.131Z,99846.97
2023-02-02T05:50:49.675Z,99846.06
2023-02-02T05:53:19.820Z,99852.09
2023-02-02T05:55:49.973Z,99863.28
2023-02-02T05:58:20.237Z,99863.28
2023-02-02T06:00:50.482Z,99868.41
2023-02-02T06:03:20.666Z,99863.22
2023-02-02T06:05:50.957Z,99874.41
2023-02-02T06:08:21.153Z,99868.38
2023-02-02T06:10:51.349Z,99878.66
2023-02-02T06:13:22.130Z,99880.38
2023-02-02T06:15:52.279Z,99878.59
2023-02-02T06:18:22.602Z,99889.81
2023-02-02T06:21:00.039Z,99893.25
2023-02-02T06:23:30.543Z,99888.97
2023-02-02T06:26:00.967Z,99895.84
2023-02-02T06:28:32.211Z,99900.09
2023-02-02T06:31:06.695Z,99900.06
2023-02-02T06:33:37.100Z,99907.72
2023-02-02T06:36:08.050Z,99912.00
2023-02-02T06:38:38.189Z,99907.72
2023-02-02T06:41:08.368Z,99912.81
2023-02-02T06:43:38.448Z,99911.91
2023-02-02T06:46:08.490Z,99913.59
2023-02-02T06:48:38.798Z,99924.75
2023-02-02T06:51:09.264Z,99924.75
2023-02-02T06:53:39.356Z,99921.31
2023-02-02T06:56:13.164Z,99906.59
2023-02-02T06:58:43.328Z,99918.66
2023-02-02T07:01:14.931Z,99916.94
2023-02-02T07:04:08.333Z,99927.25
2023-02-02T07:06:47.740Z,99933.19
2023-02-02T07:09:27.672Z,99934.03
2023-02-02T07:12:02.559Z,99939.19
2023-02-02T07:14:39.379Z,99946.09
2023-02-02T07:17:12.503Z,99952.97
2023-02-02T07:19:55.429Z,99959.88
2023-02-02T07:22:25.633Z,99966.75
2023-02-02T07:25:01.711Z,99972.78
2023-02-02T07:27:33.184Z,99977.06
2023-02-02T07:30:04.255Z,99976.97
2023-02-02T07:32:34.638Z,99980.31
2023-02-02T07:35:05.188Z,99985.44
2023-02-02T07:37:35.342Z,99997.41
2023-02-02T07:40:05.937Z,99997.41
2023-02-02T07:42:36.514Z,100005.94
2023-02-02T07:45:24.535Z,100023.03
2023-02-02T07:47:59.511Z,100032.47
2023-02-02T07:50:30.893Z,100039.34
2023-02-02T07:53:16.212Z,100041.91
2023-02-02T07:55:46.330Z,100059.91
2023-02-02T07:58:16.479Z,100068.56
2023-02-02T08:00:46.588Z,100067.69
2023-02-02T08:03:16.829Z,100073.72
2023-02-02T08:05:49.453Z,100077.19
2023-02-02T08:08:19.622Z,100103.03
2023-02-02T08:10:56.353Z,100109.88
2023-02-02T08:13:26.508Z,100121.88
2023-02-02T08:15:59.700Z,100132.13
2023-02-02T08:18:30.324Z,100132.09
2023-02-02T08:21:01.701Z,100140.69
2023-02-02T08:23:32.108Z,100144.97
2023-02-02T08:26:14.004Z,100157.88
2023-02-02T08:28:46.309Z,100161.34
2023-02-02T08:31:22.600Z,100169.97
2023-02-02T08:33:54.692Z,100179.47
2023-02-02T08:36:26.560Z,100179.56
2023-02-02T08:39:02.029Z,100173.63
2023-02-02T08:41:33.445Z,100191.75
2023-02-02T08:44:12.437Z,100190.13
2023-02-02T08:46:43.128Z,100197.09
2023-02-02T08:49:14.287Z,100199.72
2023-02-02T08:51:44.527Z,100209.25
2023-02-02T08:54:14.706Z,100217.03
2023-02-02T08:56:44.879Z,100224.84
2023-02-02T08:59:15.082Z,100234.44
2023-02-02T09:01:45.298Z,100232.81
2023-02-02T09:04:16.404Z,100238.03
2023-02-02T09:06:46.670Z,100239.78
2023-02-02T09:09:17.199Z,100240.56
2023-02-02T09:11:47.407Z,100249.19
2023-02-02T09:14:17.468Z,100244.13
2023-02-02T09:16:47.699Z,100252.78
2023-02-02T09:19:18.059Z,100249.53
2023-02-02T09:21:50.594Z,100247.97
2023-02-02T09:24:20.726Z,100268.59
2023-02-02T09:26:50.982Z,100274.56
2023-02-02T09:29:21.500Z,100272.06
2023-02-02T09:31:51.718Z,100276.44
2023-02-02T09:34:21.859Z,100279.94
2023-02-02T09:36:52.120Z,100282.56
2023-02-02T09:39:22.194Z,100298.13
2023-02-02T09:42:03.065Z,100305.03
2023-02-02T09:44:39.005Z,100310.22
2023-02-02T09:47:30.770Z,100313.69
2023-02-02T09:50:42.192Z,100321.41
2023-02-02T09:53:18.984Z,100326.56
2023-02-02T09:55:53.018Z,100331.72
2023-02-02T09:58:33.025Z,100337.84
2023-02-02T10:01:16.202Z,100336.94
2023-02-02T10:04:15.276Z,100347.28
2023-02-02T10:06:51.861Z,100346.34
2023-02-02T10:09:37.290Z,100343.69
2023-02-02T10:12:48.148Z,100354.91
2023-02-02T10:15:35.319Z,100367.84
2023-02-02T10:18:36.187Z,100374.91
2023-02-02T10:21:24.205Z,100374.16
2023-02-02T10:23:54.860Z,100384.59
2023-02-02T10:26:40.445Z,100374.31
2023-02-02T10:29:48.978Z,100383.03
2023-02-02T10:32:32.139Z,100399.59
2023-02-02T10:35:24.025Z,100392.00
2023-02-02T10:38:42.129Z,100411.88
2023-02-02T10:41:28.373Z,100407.56
2023-02-02T10:44:05.919Z,100424.78
2023-02-02T10:46:53.720Z,100421.25
2023-02-02T10:49:26.913Z,100439.44
2023-02-02T10:52:12.809Z,100439.75
2023-02-02T10:55:04.456Z,100442.44
2023-02-02T10:58:19.257Z,100447.47
2023-02-02T11:00:54.112Z,100451.53
2023-02-02T11:03:28.712Z,100471.19
2023-02-02T11:06:20.255Z,100464.06
2023-02-02T11:08:59.697Z,100468.34
2023-02-02T11:11:38.573Z,100474.41
2023-02-02T11:14:18.987Z,100475.38
2023-02-02T11:17:02.650Z,100486.88
2023-02-02T11:19:36.922Z,100473.41
2023-02-02T11:22:25.573Z,100478.63
2023-02-02T11:24:57.395Z,100502.50
2023-02-02T11:27:40.175Z,100500.44
2023-02-02T11:30:36.187Z,100519.00
2023-02-02T11:33:29.644Z,100513.63
2023-02-02T11:36:05.401Z,100531.56
2023-02-02T11:38:35.637Z,100523.72
2023-02-02T11:41:11.072Z,100524.91
2023-02-02T11:43:48.214Z,100534.28
2023-02-02T11:46:24.971Z,100532.38
2023-02-02T11:49:10.354Z,100536.28
2023-02-02T11:51:40.772Z,100541.34
2023-02-02T11:54:23.159Z,100542.25
2023-02-02T11:56:56.319Z,100554.44
2023-02-02T11:59:40.973Z,100562.75
2023-02-02T12:02:20.126Z,100562.44
2023-02-02T12:04:55.629Z,100571.72
2023-02-02T12:07:46.516Z,100564.75
2023-02-02T12:10:19.628Z,100578.81
2023-02-02T12:12:49.720Z,100585.13
2023-02-02T12:15:57.169Z,100587.78
2023-02-02T12:18:51.657Z,100592.72
2023-02-02T12:21:42.739Z,100597.50
2023-02-02T12:24:18.983Z,100605.63
2023-02-02T12:27:00.744Z,100605.97
2023-02-02T12:29:53.928Z,100609.88
2023-02-02T12:32:55.620Z,100611.88
2023-02-02T12:35:36.496Z,100614.25
2023-02-02T12:38:29.575Z,100611.63
2023-02-02T12:41:35.862Z,100612.59
2023-02-02T12:44:14.425Z,100623.88
2023-02-02T12:46:54.954Z,100622.34
2023-02-02T12:49:49.170Z,100622.44
2023-02-02T12:52:34.018Z,100627.59
2023-02-02T12:55:31.780Z,100643.66
2023-02-02T13:02:11.352Z,100648.03
2023-02-02T13:05:48.236Z,100659.09
2023-02-02T13:08:59.659Z,100665.94
2023-02-02T13:11:46.057Z,100689.59
2023-02-02T13:14:28.118Z,100691.84
2023-02-02T13:17:05.406Z,100710.34
2023-02-02T13:19:47.657Z,100714.41
2023-02-02T13:22:32.682Z,100710.63
2023-02-02T13:25:08.755Z,100712.22
2023-02-02T13:27:40.522Z,100720.84
2023-02-02T13:30:31.507Z,100721.75
2023-02-02T13:33:10.361Z,100722.03
2023-02-02T13:35:53.671Z,100733.91
2023-02-02T13:38:26.512Z,100734.53
2023-02-02T13:41:01.087Z,100735.63
2023-02-02T13:43:41.907Z,100742.75
2023-02-02T13:46:24.022Z,100754.84
2023-02-02T13:49:13.935Z,100767.31
2023-02-02T13:51:47.136Z,100765.25
2023-02-02T13:54:50.693Z,100771.06
2023-02-02T13:57:58.031Z,100776.16
2023-02-02T14:00:36.358Z,100787.09
2023-02-02T14:03:40.787Z,100790.19
2023-02-02T14:06:12.980Z,100796.09
2023-02-02T14:08:58.780Z,100807.31
2023-02-02T14:11:33.453Z,100800.56
2023-02-02T14:14:32.958Z,100804.84
2023-02-02T14:17:17.525Z,100821.06
2023-02-02T14:19:51.768Z,100825.16
2023-02-02T14:23:00.550Z,100843.06
2023-02-02T14:25:33.693Z,100843.78
2023-02-02T14:28:10.446Z,100853.16
2023-02-02T14:30:41.026Z,100851.47
2023-02-02T14:33:47.626Z,100859.38
2023-02-02T14:36:20.239Z,100858.41
2023-02-02T14:39:02.308Z,100869.47
2023-02-02T14:42:08.729Z,100871.94
2023-02-02T14:45:05.255Z,100900.16
2023-02-02T14:47:57.179Z,100909.44
2023-02-02T14:50:38.550Z,100929.06
2023-02-02T14:53:18.012Z,100940.16
2023-02-02T14:55:56.064Z,100945.13
2023-02-02T14:58:32.258Z,100961.06
2023-02-02T15:01:18.416Z,100982.91
2023-02-02T15:04:20.249Z,100966.09
2023-02-02T15:06:53.107Z,100988.34
2023-02-02T15:09:23.590Z,101000.22
2023-02-02T15:12:02.112Z,101007.66
2023-02-02T15:15:10.847Z,101012.47
2023-02-02T15:17:41.263Z,101025.44
2023-02-02T15:20:36.835Z,101037.44
2023-02-02T15:23:15.575Z,101041.75
2023-02-02T15:25:54.721Z,101041.81
2023-02-02T15:28:36.491Z,101050.47
2023-02-02T15:31:37.824Z,101046.22
2023-02-02T15:34:21.908Z,101055.75
2023-02-02T15:36:57.503Z,101060.00
2023-02-02T15:39:27.617Z,101073.00
2023-02-02T15:42:18.953Z,101078.06
2023-02-02T15:44:49.165Z,101081.44
2023-02-02T15:47:28.335Z,101094.28
2023-02-02T15:49:59.641Z,101098.59
2023-02-02T15:52:35.648Z,101094.13
2023-02-02T15:55:22.069Z,101117.59
2023-02-02T15:57:54.414Z,101127.94
2023-02-02T16:00:34.317Z,101127.78
2023-02-02T16:03:11.103Z,101130.88
2023-02-02T16:05:48.898Z,101145.44
2023-02-02T16:08:26.300Z,101144.19
2023-02-02T16:11:06.723Z,101164.63
2023-02-02T16:13:38.044Z,101164.53
2023-02-02T16:16:40.058Z,101179.19
2023-02-02T16:19:19.859Z,101178.22
2023-02-02T16:22:00.985Z,101182.69
2023-02-02T16:24:36.334Z,101197.28
2023-02-02T16:27:10.978Z,101185.16
2023-02-02T16:29:42.490Z,101196.31
2023-02-02T16:32:33.575Z,101220.47
2023-02-02T16:35:26.067Z,101210.03
2023-02-02T16:38:16.292Z,101213.47
2023-02-02T16:40:46.562Z,101204.59
2023-02-02T16:43:18.518Z,101223.81
2023-02-02T16:45:53.561Z,101236.69
2023-02-02T16:48:32.715Z,101247.06
2023-02-02T16:51:18.020Z,101256.25
2023-02-02T16:54:06.257Z,101255.16
2023-02-02T16:56:44.149Z,101264.31
2023-02-02T16:59:25.467Z,101276.16
2023-02-02T17:02:01.727Z,101271.72
2023-02-02T17:04:34.247Z,101288.16
2023-02-02T17:07:16.120Z,101294.69
2023-02-02T17:09:48.908Z,101305.09
2023-02-02T17:12:32.824Z,101315.25
2023-02-02T17:15:32.709Z,101317.72
2023-02-02T17:18:05.472Z,101314.72
2023-02-02T17:20:35.686Z,101305.19
2023-02-02T17:23:10.068Z,101311.22
2023-02-02T17:25:43.682Z,101326.00
2023-02-02T17:28:21.849Z,101331.16
2023-02-02T17:31:04.209Z,101321.41
2023-02-02T17:33:36.009Z,101350.84
2023-02-02T17:36:06.721Z,101350.88
2023-02-02T17:38:37.984Z,101349.84
2023-02-02T17:41:17.083Z,101365.16
2023-02-02T17:43:49.993Z,101375.44
2023-02-02T17:46:31.150Z,101385.44
2023-02-02T17:49:01.681Z,101383.53
2023-02-02T17:51:34.437Z,101379.94
2023-02-02T17:54:10.773Z,101402.19
2023-02-02T17:56:42.135Z,101393.97
2023-02-02T17:59:12.416Z,101397.63
2023-02-02T18:01:42.686Z,101408.53
2023-02-02T18:04:14.556Z,101379.94
2023-02-02T18:06:44.650Z,101393.78
2023-02-02T18:09:14.748Z,101396.53
2023-02-02T18:11:52.491Z,101398.47
2023-02-02T18:14:22.565Z,101408.22
2023-02-02T18:16:52.884Z,101417.81
2023-02-02T18:19:23.020Z,101415.16
2023-02-02T18:21:53.235Z,101434.28
2023-02-02T18:24:23.397Z,101430.94
2023-02-02T18:26:53.512Z,101438.00
2023-02-02T18:29:23.662Z,101439.88
2023-02-02T18:31:53.786Z,101442.44
2023-02-02T18:34:24.127Z,101452.63
2023-02-02T18:36:54.348Z,101468.28
2023-02-02T18:39:24.854Z,101463.63
2023-02-02T18:41:54.974Z,101474.09
2023-02-02T18:44:25.251Z,101472.47
2023-02-02T18:46:55.471Z,101474.28
2023-02-02T18:49:25.647Z,101475.16
2023-02-02T18:51:55.739Z,101473.44
2023-02-02T18:54:25.954Z,101482.16
2023-02-02T18:56:56.070Z,101494.25
2023-02-02T18:59:26.603Z,101495.81
2023-02-02T19:01:56.794Z,101505.22
2023-02-02T19:04:27.148Z,101503.78
2023-02-02T19:07:15.729Z,101519.31
2023-02-02T19:09:45.841Z,101519.19
2023-02-02T19:12:16.531Z,101519.88
2023-02-02T19:14:46.655Z,101513.75
2023-02-02T19:17:24.699Z,101516.50
2023-02-02T19:19:58.768Z,101516.44
2023-02-02T19:22:32.357Z,101517.22
2023-02-02T19:25:11.264Z,101533.38
2023-02-02T19:27:41.358Z,101527.06
2023-02-02T19:30:20.654Z,101543.47
2023-02-02T19:32:50.930Z,101534.03
2023-02-02T19:35:24.619Z,101539.16
2023-02-02T19:38:02.574Z,101553.16
2023-02-02T19:40:33.971Z,101549.13
2023-02-02T19:43:11.456Z,101542.22
2023-02-02T19:45:41.547Z,101539.63
2023-02-02T19:48:18.085Z,101545.53
2023-02-02T19:50:48.771Z,101541.84
2023-02-02T19:53:21.781Z,101532.31
2023-02-02T19:55:53.057Z,101526.72
2023-02-02T19:58:26.622Z,101533.63
2023-02-02T20:00:58.236Z,101541.44
2023-02-02T20:03:43.256Z,101551.91
2023-02-02T20:06:22.771Z,101556.28
2023-02-02T20:08:53.620Z,101563.81
2023-02-02T20:11:39.002Z,101584.28
2023-02-02T20:14:18.779Z,101584.97
2023-02-02T20:16:53.968Z,101577.00
2023-02-02T20:19:29.231Z,101577.84
2023-02-02T20:21:59.724Z,101571.72
2023-02-02T20:24:37.556Z,101570.16
2023-02-02T20:27:18.100Z,101585.00
2023-02-02T20:29:51.304Z,101544.72
2023-02-02T20:32:39.467Z,101583.38
2023-02-02T20:35:44.546Z,101580.69
2023-02-02T20:38:37.891Z,101582.44
2023-02-02T20:41:08.003Z,101584.97
2023-02-02T20:43:38.136Z,101596.22
2023-02-02T20:46:08.487Z,101605.75
2023-02-02T20:48:38.826Z,101606.66
2023-02-02T20:51:08.992Z,101615.34
2023-02-02T20:53:41.235Z,101613.59
2023-02-02T20:56:11.349Z,101613.59
2023-02-02T20:58:41.504Z,101616.84
2023-02-02T21:01:11.814Z,101620.44
2023-02-02T21:03:42.015Z,101625.69
2023-02-02T21:06:12.284Z,101621.59
2023-02-02T21:08:43.901Z,101631.91
2023-02-02T21:11:14.040Z,101631.97
2023-02-02T21:13:44.204Z,101639.88
2023-02-02T21:16:15.736Z,101622.56
2023-02-02T21:18:48.616Z,101622.50
2023-02-02T21:21:25.337Z,101620.00
2023-02-02T21:23:56.440Z,101630.34
2023-02-02T21:26:28.079Z,101635.50
2023-02-02T21:29:00.871Z,101635.50
2023-02-02T21:34:37.105Z,101648.06
2023-02-02T21:37:15.433Z,101647.72
2023-02-02T21:39:49.693Z,101661.16
2023-02-02T21:42:21.824Z,101661.31
2023-02-02T21:44:57.477Z,101664.59
2023-02-02T21:47:52.187Z,101648.66
2023-02-02T21:50:32.301Z,101663.25
2023-02-02T21:53:20.409Z,101678.44
2023-02-02T21:56:01.897Z,101672.94
2023-02-02T21:58:39.787Z,101682.03
2023-02-02T22:01:27.999Z,101692.03
2023-02-02T22:03:58.592Z,101704.88
2023-02-02T22:06:43.010Z,101710.13
2023-02-02T22:09:15.840Z,101700.00
2023-02-02T22:12:02.177Z,101710.13
2023-02-02T22:14:37.972Z,101708.88
2023-02-02T22:17:25.738Z,101713.22
2023-02-02T22:20:11.294Z,101716.44
2023-02-02T22:22:45.780Z,101720.63
2023-02-02T22:25:21.126Z,101713.81
2023-02-02T22:27:54.885Z,101706.94
2023-02-02T22:30:39.110Z,101712.94
2023-02-02T22:33:12.192Z,101720.50
2023-02-02T22:35:43.366Z,101717.75
2023-02-02T22:38:22.279Z,101704.78
2023-02-02T22:40:52.919Z,101707.28
2023-02-02T22:43:23.176Z,101667.66
2023-02-02T22:45:53.414Z,101708.84
2023-02-02T22:48:23.724Z,101708.09
2023-02-02T22:50:53.917Z,101706.19
2023-02-02T22:53:24.152Z,101702.53
2023-02-02T22:55:56.839Z,101700.94
2023-02-02T22:58:26.981Z,101701.88
2023-02-02T23:00:57.145Z,101704.28
2023-02-02T23:03:27.533Z,101700.53
2023-02-02T23:05:57.653Z,101695.34
2023-02-02T23:08:27.779Z,101698.56
2023-02-02T23:10:58.219Z,101703.69
2023-02-02T23:13:28.343Z,101700.09
2023-02-02T23:15:58.604Z,101703.34
2023-02-02T23:18:29.390Z,101705.91
2023-02-02T23:20:59.529Z,101719.50
2023-02-02T23:23:29.652Z,101728.00
2023-02-02T23:25:59.765Z,101731.28
2023-02-02T23:28:29.872Z,101727.38
2023-02-02T23:31:00.192Z,101709.81
2023-02-02T23:33:30.338Z,101731.41
2023-02-02T23:36:00.458Z,101731.41
2023-02-02T23:38:30.621Z,101719.88
2023-02-02T23:41:00.751Z,101733.97
2023-02-02T23:43:30.813Z,101739.00
2023-02-02T23:46:01.070Z,101736.44
2023-02-02T23:48:31.224Z,101738.78
2023-02-02T23:51:01.749Z,101737.13
2023-02-02T23:53:32.052Z,101749.03
2023-02-02T23:56:02.248Z,101740.25
2023-02-02T23:58:32.363Z,101735.94
